sensor_id;sensor_type;location;lat;lon;timestamp;P1;durP1;ratioP1;P2;durP2;ratioP2
20179;SDS011;10249;48.900;9.090;2023-03-11T00:00:14;13.33;;;12.67;;
20179;SDS011;10249;48.900;9.090;2023-03-11T00:02:43;12.70;;;12.20;;
20179;SDS011;10249;48.900;9.090;2023-03-11T00:05:11;12.57;;;12.07;;
20179;SDS011;10249;48.900;9.090;2023-03-11T00:07:40;13.20;;;12.60;;
20179;SDS011;10249;48.900;9.090;2023-03-11T00:10:09;12.30;;;11.80;;
20179;SDS011;10249;48.900;9.090;2023-03-11T00:12:39;12.77;;;12.17;;
20179;SDS011;10249;48.900;9.090;2023-03-11T00:15:06;12.70;;;12.20;;
20179;SDS011;10249;48.900;9.090;2023-03-11T00:17:33;12.73;;;12.23;;
20179;SDS011;10249;48.900;9.090;2023-03-11T00:20:00;12.87;;;12.27;;
20179;SDS011;10249;48.900;9.090;2023-03-11T00:22:28;12.93;;;12.40;;
20179;SDS011;10249;48.900;9.090;2023-03-11T00:24:57;12.30;;;11.80;;
20179;SDS011;10249;48.900;9.090;2023-03-11T00:27:24;12.80;;;12.20;;
20179;SDS011;10249;48.900;9.090;2023-03-11T00:29:51;12.30;;;11.70;;
20179;SDS011;10249;48.900;9.090;2023-03-11T00:32:18;11.87;;;11.40;;
20179;SDS011;10249;48.900;9.090;2023-03-11T00:34:45;12.10;;;11.57;;
20179;SDS011;10249;48.900;9.090;2023-03-11T00:37:12;12.40;;;11.83;;
20179;SDS011;10249;48.900;9.090;2023-03-11T00:39:39;11.70;;;11.20;;
20179;SDS011;10249;48.900;9.090;2023-03-11T00:42:08;12.80;;;12.20;;
20179;SDS011;10249;48.900;9.090;2023-03-11T00:44:35;12.50;;;11.60;;
20179;SDS011;10249;48.900;9.090;2023-03-11T00:47:02;12.20;;;11.70;;
20179;SDS011;10249;48.900;9.090;2023-03-11T00:49:29;12.20;;;11.60;;
20179;SDS011;10249;48.900;9.090;2023-03-11T00:51:56;12.30;;;11.80;;
20179;SDS011;10249;48.900;9.090;2023-03-11T00:54:23;12.07;;;11.57;;
20179;SDS011;10249;48.900;9.090;2023-03-11T00:56:50;11.97;;;11.37;;
20179;SDS011;10249;48.900;9.090;2023-03-11T00:59:19;11.80;;;11.30;;
20179;SDS011;10249;48.900;9.090;2023-03-11T01:01:46;12.37;;;11.67;;
20179;SDS011;10249;48.900;9.090;2023-03-11T01:04:13;12.70;;;12.10;;
20179;SDS011;10249;48.900;9.090;2023-03-11T01:06:40;12.57;;;11.97;;
20179;SDS011;10249;48.900;9.090;2023-03-11T01:09:07;11.77;;;11.27;;
20179;SDS011;10249;48.900;9.090;2023-03-11T01:11:35;12.60;;;12.10;;
20179;SDS011;10249;48.900;9.090;2023-03-11T01:14:02;12.37;;;11.60;;
20179;SDS011;10249;48.900;9.090;2023-03-11T01:16:30;12.67;;;12.00;;
20179;SDS011;10249;48.900;9.090;2023-03-11T01:18:57;12.17;;;11.67;;
20179;SDS011;10249;48.900;9.090;2023-03-11T01:21:25;11.80;;;11.30;;
20179;SDS011;10249;48.900;9.090;2023-03-11T01:23:52;12.37;;;11.57;;
20179;SDS011;10249;48.900;9.090;2023-03-11T01:26:19;11.33;;;10.87;;
20179;SDS011;10249;48.900;9.090;2023-03-11T01:28:46;12.07;;;11.47;;
20179;SDS011;10249;48.900;9.090;2023-03-11T01:31:13;12.43;;;11.73;;
20179;SDS011;10249;48.900;9.090;2023-03-11T01:33:42;12.03;;;11.43;;
20179;SDS011;10249;48.900;9.090;2023-03-11T01:36:09;12.07;;;11.50;;
20179;SDS011;10249;48.900;9.090;2023-03-11T01:38:36;11.60;;;11.10;;
20179;SDS011;10249;48.900;9.090;2023-03-11T01:41:03;11.83;;;11.23;;
20179;SDS011;10249;48.900;9.090;2023-03-11T01:43:35;11.83;;;11.23;;
20179;SDS011;10249;48.900;9.090;2023-03-11T01:46:06;12.33;;;11.70;;
20179;SDS011;10249;48.900;9.090;2023-03-11T01:48:34;11.70;;;11.20;;
20179;SDS011;10249;48.900;9.090;2023-03-11T01:51:04;11.10;;;10.60;;
20179;SDS011;10249;48.900;9.090;2023-03-11T01:53:31;11.20;;;10.80;;
20179;SDS011;10249;48.900;9.090;2023-03-11T01:55:59;12.03;;;11.30;;
20179;SDS011;10249;48.900;9.090;2023-03-11T01:58:28;11.43;;;10.83;;
20179;SDS011;10249;48.900;9.090;2023-03-11T02:00:56;11.50;;;10.93;;
20179;SDS011;10249;48.900;9.090;2023-03-11T02:03:26;11.80;;;11.20;;
20179;SDS011;10249;48.900;9.090;2023-03-11T02:05:55;12.37;;;11.67;;
20179;SDS011;10249;48.900;9.090;2023-03-11T02:08:24;12.73;;;12.10;;
20179;SDS011;10249;48.900;9.090;2023-03-11T02:10:52;12.30;;;11.60;;
20179;SDS011;10249;48.900;9.090;2023-03-11T02:13:19;12.27;;;11.60;;
20179;SDS011;10249;48.900;9.090;2023-03-11T02:15:46;11.73;;;11.13;;
20179;SDS011;10249;48.900;9.090;2023-03-11T02:18:14;12.27;;;11.50;;
20179;SDS011;10249;48.900;9.090;2023-03-11T02:20:43;13.03;;;12.23;;
20179;SDS011;10249;48.900;9.090;2023-03-11T02:23:13;12.90;;;12.07;;
20179;SDS011;10249;48.900;9.090;2023-03-11T02:25:43;12.00;;;11.40;;
20179;SDS011;10249;48.900;9.090;2023-03-11T02:28:13;11.20;;;10.70;;
20179;SDS011;10249;48.900;9.090;2023-03-11T02:30:41;12.40;;;11.70;;
20179;SDS011;10249;48.900;9.090;2023-03-11T02:33:09;12.93;;;11.83;;
20179;SDS011;10249;48.900;9.090;2023-03-11T02:35:36;12.67;;;11.50;;
20179;SDS011;10249;48.900;9.090;2023-03-11T02:38:03;11.83;;;11.20;;
20179;SDS011;10249;48.900;9.090;2023-03-11T02:43:15;12.40;;;11.80;;
20179;SDS011;10249;48.900;9.090;2023-03-11T02:45:44;11.27;;;10.77;;
20179;SDS011;10249;48.900;9.090;2023-03-11T02:48:11;12.00;;;11.30;;
20179;SDS011;10249;48.900;9.090;2023-03-11T02:50:38;11.80;;;11.20;;
20179;SDS011;10249;48.900;9.090;2023-03-11T02:53:06;11.40;;;10.80;;
20179;SDS011;10249;48.900;9.090;2023-03-11T02:55:33;11.73;;;11.13;;
20179;SDS011;10249;48.900;9.090;2023-03-11T02:58:00;10.90;;;10.50;;
20179;SDS011;10249;48.900;9.090;2023-03-11T03:00:28;11.43;;;10.93;;
20179;SDS011;10249;48.900;9.090;2023-03-11T03:02:56;11.13;;;10.73;;
20179;SDS011;10249;48.900;9.090;2023-03-11T03:05:23;12.20;;;11.33;;
20179;SDS011;10249;48.900;9.090;2023-03-11T03:07:50;11.70;;;11.20;;
20179;SDS011;10249;48.900;9.090;2023-03-11T03:10:18;12.10;;;11.50;;
20179;SDS011;10249;48.900;9.090;2023-03-11T03:12:45;12.33;;;11.73;;
20179;SDS011;10249;48.900;9.090;2023-03-11T03:15:12;12.07;;;11.47;;
20179;SDS011;10249;48.900;9.090;2023-03-11T03:17:41;12.23;;;11.73;;
20179;SDS011;10249;48.900;9.090;2023-03-11T03:20:09;13.00;;;12.30;;
20179;SDS011;10249;48.900;9.090;2023-03-11T03:22:38;11.90;;;11.33;;
20179;SDS011;10249;48.900;9.090;2023-03-11T03:25:05;11.53;;;11.03;;
20179;SDS011;10249;48.900;9.090;2023-03-11T03:27:32;11.90;;;11.40;;
20179;SDS011;10249;48.900;9.090;2023-03-11T03:30:00;11.90;;;11.30;;
20179;SDS011;10249;48.900;9.090;2023-03-11T03:32:27;12.20;;;11.50;;
20179;SDS011;10249;48.900;9.090;2023-03-11T03:34:55;11.27;;;10.87;;
20179;SDS011;10249;48.900;9.090;2023-03-11T03:37:23;11.97;;;11.33;;
20179;SDS011;10249;48.900;9.090;2023-03-11T03:39:51;12.57;;;11.67;;
20179;SDS011;10249;48.900;9.090;2023-03-11T03:42:18;12.30;;;11.70;;
20179;SDS011;10249;48.900;9.090;2023-03-11T03:44:45;11.40;;;10.90;;
20179;SDS011;10249;48.900;9.090;2023-03-11T03:47:12;11.60;;;11.10;;
20179;SDS011;10249;48.900;9.090;2023-03-11T03:49:39;11.97;;;11.13;;
20179;SDS011;10249;48.900;9.090;2023-03-11T03:52:08;11.60;;;11.00;;
20179;SDS011;10249;48.900;9.090;2023-03-11T03:54:35;11.20;;;10.80;;
20179;SDS011;10249;48.900;9.090;2023-03-11T03:57:03;12.07;;;11.17;;
20179;SDS011;10249;48.900;9.090;2023-03-11T03:59:30;11.77;;;11.27;;
20179;SDS011;10249;48.900;9.090;2023-03-11T04:01:57;11.20;;;10.80;;
20179;SDS011;10249;48.900;9.090;2023-03-11T04:04:24;11.73;;;11.17;;
20179;SDS011;10249;48.900;9.090;2023-03-11T04:06:51;11.43;;;10.80;;
20179;SDS011;10249;48.900;9.090;2023-03-11T04:09:19;12.07;;;11.33;;
20179;SDS011;10249;48.900;9.090;2023-03-11T04:11:47;11.30;;;10.90;;
20179;SDS011;10249;48.900;9.090;2023-03-11T04:14:14;11.37;;;10.87;;
20179;SDS011;10249;48.900;9.090;2023-03-11T04:16:41;11.03;;;10.60;;
20179;SDS011;10249;48.900;9.090;2023-03-11T04:19:08;11.77;;;11.07;;
20179;SDS011;10249;48.900;9.090;2023-03-11T04:21:35;10.70;;;10.30;;
20179;SDS011;10249;48.900;9.090;2023-03-11T04:24:02;11.00;;;10.50;;
20179;SDS011;10249;48.900;9.090;2023-03-11T04:26:31;10.70;;;10.30;;
20179;SDS011;10249;48.900;9.090;2023-03-11T04:28:58;11.50;;;10.80;;
20179;SDS011;10249;48.900;9.090;2023-03-11T04:31:25;11.30;;;10.60;;
20179;SDS011;10249;48.900;9.090;2023-03-11T04:33:52;10.60;;;10.20;;
20179;SDS011;10249;48.900;9.090;2023-03-11T04:36:19;11.33;;;10.83;;
20179;SDS011;10249;48.900;9.090;2023-03-11T04:38:46;10.93;;;10.40;;
20179;SDS011;10249;48.900;9.090;2023-03-11T04:41:13;11.43;;;10.93;;
20179;SDS011;10249;48.900;9.090;2023-03-11T04:43:41;10.80;;;10.30;;
20179;SDS011;10249;48.900;9.090;2023-03-11T04:46:08;11.63;;;10.97;;
20179;SDS011;10249;48.900;9.090;2023-03-11T04:48:35;10.53;;;10.03;;
20179;SDS011;10249;48.900;9.090;2023-03-11T04:51:03;11.10;;;10.60;;
20179;SDS011;10249;48.900;9.090;2023-03-11T04:53:30;12.00;;;11.17;;
20179;SDS011;10249;48.900;9.090;2023-03-11T04:55:57;10.97;;;10.57;;
20179;SDS011;10249;48.900;9.090;2023-03-11T04:58:24;11.50;;;10.90;;
20179;SDS011;10249;48.900;9.090;2023-03-11T05:00:52;11.30;;;10.70;;
20179;SDS011;10249;48.900;9.090;2023-03-11T05:03:20;11.33;;;10.80;;
20179;SDS011;10249;48.900;9.090;2023-03-11T05:05:47;10.37;;;9.97;;
20179;SDS011;10249;48.900;9.090;2023-03-11T05:08:14;11.50;;;11.00;;
20179;SDS011;10249;48.900;9.090;2023-03-11T05:10:41;11.50;;;10.90;;
20179;SDS011;10249;48.900;9.090;2023-03-11T05:13:08;12.50;;;11.80;;
20179;SDS011;10249;48.900;9.090;2023-03-11T05:15:35;10.50;;;10.10;;
20179;SDS011;10249;48.900;9.090;2023-03-11T05:18:04;11.93;;;11.23;;
20179;SDS011;10249;48.900;9.090;2023-03-11T05:20:31;10.47;;;10.07;;
20179;SDS011;10249;48.900;9.090;2023-03-11T05:22:58;11.47;;;10.80;;
20179;SDS011;10249;48.900;9.090;2023-03-11T05:25:25;11.33;;;10.73;;
20179;SDS011;10249;48.900;9.090;2023-03-11T05:27:52;10.23;;;9.83;;
20179;SDS011;10249;48.900;9.090;2023-03-11T05:30:19;10.47;;;10.07;;
20179;SDS011;10249;48.900;9.090;2023-03-11T05:32:46;10.70;;;10.30;;
20179;SDS011;10249;48.900;9.090;2023-03-11T05:35:15;11.40;;;10.60;;
20179;SDS011;10249;48.900;9.090;2023-03-11T05:37:42;11.20;;;10.50;;
20179;SDS011;10249;48.900;9.090;2023-03-11T05:40:10;10.90;;;10.40;;
20179;SDS011;10249;48.900;9.090;2023-03-11T05:42:37;10.80;;;10.30;;
20179;SDS011;10249;48.900;9.090;2023-03-11T05:45:06;11.17;;;10.57;;
20179;SDS011;10249;48.900;9.090;2023-03-11T05:47:33;9.90;;;9.60;;
20179;SDS011;10249;48.900;9.090;2023-03-11T05:50:00;10.00;;;9.60;;
20179;SDS011;10249;48.900;9.090;2023-03-11T05:52:29;9.70;;;9.40;;
20179;SDS011;10249;48.900;9.090;2023-03-11T05:54:58;10.37;;;9.97;;
20179;SDS011;10249;48.900;9.090;2023-03-11T05:57:25;10.00;;;9.70;;
20179;SDS011;10249;48.900;9.090;2023-03-11T05:59:52;10.60;;;10.00;;
20179;SDS011;10249;48.900;9.090;2023-03-11T06:02:19;11.10;;;10.50;;
20179;SDS011;10249;48.900;9.090;2023-03-11T06:04:47;10.97;;;10.50;;
20179;SDS011;10249;48.900;9.090;2023-03-11T06:07:14;10.77;;;10.27;;
20179;SDS011;10249;48.900;9.090;2023-03-11T06:09:42;11.57;;;10.60;;
20179;SDS011;10249;48.900;9.090;2023-03-11T06:12:09;11.47;;;10.90;;
20179;SDS011;10249;48.900;9.090;2023-03-11T06:14:36;12.10;;;11.30;;
20179;SDS011;10249;48.900;9.090;2023-03-11T06:17:04;10.70;;;10.30;;
20179;SDS011;10249;48.900;9.090;2023-03-11T06:19:31;11.60;;;11.00;;
20179;SDS011;10249;48.900;9.090;2023-03-11T06:21:58;11.53;;;10.87;;
20179;SDS011;10249;48.900;9.090;2023-03-11T06:24:25;10.67;;;10.27;;
20179;SDS011;10249;48.900;9.090;2023-03-11T06:26:53;11.80;;;11.00;;
20179;SDS011;10249;48.900;9.090;2023-03-11T06:29:20;11.10;;;10.60;;
20179;SDS011;10249;48.900;9.090;2023-03-11T06:31:50;11.63;;;10.90;;
20179;SDS011;10249;48.900;9.090;2023-03-11T06:34:17;11.73;;;11.20;;
20179;SDS011;10249;48.900;9.090;2023-03-11T06:36:44;12.63;;;11.60;;
20179;SDS011;10249;48.900;9.090;2023-03-11T06:39:12;12.47;;;11.83;;
20179;SDS011;10249;48.900;9.090;2023-03-11T06:41:39;11.90;;;11.20;;
20179;SDS011;10249;48.900;9.090;2023-03-11T06:44:08;11.30;;;10.70;;
20179;SDS011;10249;48.900;9.090;2023-03-11T06:46:35;11.90;;;11.20;;
20179;SDS011;10249;48.900;9.090;2023-03-11T06:49:03;12.30;;;11.60;;
20179;SDS011;10249;48.900;9.090;2023-03-11T06:51:30;12.00;;;11.50;;
20179;SDS011;10249;48.900;9.090;2023-03-11T06:53:57;12.60;;;11.63;;
20179;SDS011;10249;48.900;9.090;2023-03-11T06:56:24;11.83;;;11.27;;
20179;SDS011;10249;48.900;9.090;2023-03-11T06:58:52;11.70;;;11.20;;
20179;SDS011;10249;48.900;9.090;2023-03-11T07:01:20;11.50;;;11.10;;
20179;SDS011;10249;48.900;9.090;2023-03-11T07:03:48;11.33;;;10.83;;
20179;SDS011;10249;48.900;9.090;2023-03-11T07:06:16;11.10;;;10.70;;
20179;SDS011;10249;48.900;9.090;2023-03-11T07:08:44;11.47;;;11.00;;
20179;SDS011;10249;48.900;9.090;2023-03-11T07:11:13;12.10;;;11.50;;
20179;SDS011;10249;48.900;9.090;2023-03-11T07:13:40;11.83;;;11.33;;
20179;SDS011;10249;48.900;9.090;2023-03-11T07:16:08;11.60;;;11.10;;
20179;SDS011;10249;48.900;9.090;2023-03-11T07:18:37;11.43;;;10.93;;
20179;SDS011;10249;48.900;9.090;2023-03-11T07:21:05;12.23;;;11.40;;
20179;SDS011;10249;48.900;9.090;2023-03-11T07:23:32;12.17;;;11.47;;
20179;SDS011;10249;48.900;9.090;2023-03-11T07:26:00;12.50;;;11.90;;
20179;SDS011;10249;48.900;9.090;2023-03-11T07:28:27;11.90;;;11.37;;
20179;SDS011;10249;48.900;9.090;2023-03-11T07:30:55;14.60;;;12.17;;
20179;SDS011;10249;48.900;9.090;2023-03-11T07:33:22;12.07;;;11.37;;
20179;SDS011;10249;48.900;9.090;2023-03-11T07:35:51;13.27;;;11.93;;
20179;SDS011;10249;48.900;9.090;2023-03-11T07:38:18;12.27;;;11.67;;
20179;SDS011;10249;48.900;9.090;2023-03-11T07:40:45;12.73;;;11.90;;
20179;SDS011;10249;48.900;9.090;2023-03-11T07:43:12;11.87;;;11.37;;
20179;SDS011;10249;48.900;9.090;2023-03-11T07:45:40;13.73;;;12.97;;
20179;SDS011;10249;48.900;9.090;2023-03-11T07:48:07;12.00;;;11.50;;
20179;SDS011;10249;48.900;9.090;2023-03-11T07:50:34;13.53;;;12.63;;
20179;SDS011;10249;48.900;9.090;2023-03-11T07:53:02;14.33;;;13.23;;
20179;SDS011;10249;48.900;9.090;2023-03-11T07:55:29;13.50;;;12.60;;
20179;SDS011;10249;48.900;9.090;2023-03-11T07:57:56;13.30;;;12.20;;
20179;SDS011;10249;48.900;9.090;2023-03-11T08:00:23;13.43;;;12.60;;
20179;SDS011;10249;48.900;9.090;2023-03-11T08:02:51;13.00;;;12.30;;
20179;SDS011;10249;48.900;9.090;2023-03-11T08:05:18;13.33;;;12.63;;
20179;SDS011;10249;48.900;9.090;2023-03-11T08:07:45;13.10;;;12.07;;
20179;SDS011;10249;48.900;9.090;2023-03-11T08:10:14;13.73;;;13.03;;
20179;SDS011;10249;48.900;9.090;2023-03-11T08:12:41;14.23;;;13.23;;
20179;SDS011;10249;48.900;9.090;2023-03-11T08:15:08;13.10;;;12.60;;
20179;SDS011;10249;48.900;9.090;2023-03-11T08:17:35;13.47;;;12.70;;
20179;SDS011;10249;48.900;9.090;2023-03-11T08:20:03;14.13;;;13.33;;
20179;SDS011;10249;48.900;9.090;2023-03-11T08:22:32;13.90;;;13.10;;
20179;SDS011;10249;48.900;9.090;2023-03-11T08:25:00;13.53;;;12.83;;
20179;SDS011;10249;48.900;9.090;2023-03-11T08:27:28;13.90;;;13.23;;
20179;SDS011;10249;48.900;9.090;2023-03-11T08:29:55;13.40;;;12.60;;
20179;SDS011;10249;48.900;9.090;2023-03-11T08:32:24;13.97;;;12.83;;
20179;SDS011;10249;48.900;9.090;2023-03-11T08:34:51;13.23;;;12.63;;
20179;SDS011;10249;48.900;9.090;2023-03-11T08:37:18;13.27;;;12.67;;
20179;SDS011;10249;48.900;9.090;2023-03-11T08:39:45;13.47;;;12.73;;
20179;SDS011;10249;48.900;9.090;2023-03-11T08:42:12;14.67;;;13.50;;
20179;SDS011;10249;48.900;9.090;2023-03-11T08:44:40;13.77;;;12.97;;
20179;SDS011;10249;48.900;9.090;2023-03-11T08:47:08;14.20;;;13.33;;
20179;SDS011;10249;48.900;9.090;2023-03-11T08:49:36;14.23;;;13.43;;
20179;SDS011;10249;48.900;9.090;2023-03-11T08:52:03;13.50;;;12.67;;
20179;SDS011;10249;48.900;9.090;2023-03-11T08:54:31;14.03;;;13.20;;
20179;SDS011;10249;48.900;9.090;2023-03-11T08:56:58;13.43;;;12.93;;
20179;SDS011;10249;48.900;9.090;2023-03-11T08:59:27;14.13;;;13.30;;
20179;SDS011;10249;48.900;9.090;2023-03-11T09:01:56;14.03;;;13.13;;
20179;SDS011;10249;48.900;9.090;2023-03-11T09:04:23;14.30;;;13.37;;
20179;SDS011;10249;48.900;9.090;2023-03-11T09:06:50;13.50;;;13.00;;
20179;SDS011;10249;48.900;9.090;2023-03-11T09:09:17;15.00;;;14.20;;
20179;SDS011;10249;48.900;9.090;2023-03-11T09:11:44;14.73;;;13.83;;
20179;SDS011;10249;48.900;9.090;2023-03-11T09:14:12;15.67;;;14.60;;
20179;SDS011;10249;48.900;9.090;2023-03-11T09:16:39;15.83;;;14.50;;
20179;SDS011;10249;48.900;9.090;2023-03-11T09:19:07;13.93;;;13.27;;
20179;SDS011;10249;48.900;9.090;2023-03-11T09:21:35;14.63;;;13.83;;
20179;SDS011;10249;48.900;9.090;2023-03-11T09:24:02;13.93;;;13.33;;
20179;SDS011;10249;48.900;9.090;2023-03-11T09:26:29;14.50;;;13.70;;
20179;SDS011;10249;48.900;9.090;2023-03-11T09:28:57;15.50;;;14.40;;
20179;SDS011;10249;48.900;9.090;2023-03-11T09:31:24;14.87;;;13.80;;
20179;SDS011;10249;48.900;9.090;2023-03-11T09:33:51;14.80;;;14.10;;
20179;SDS011;10249;48.900;9.090;2023-03-11T09:36:21;14.30;;;13.70;;
20179;SDS011;10249;48.900;9.090;2023-03-11T09:38:48;14.43;;;13.83;;
20179;SDS011;10249;48.900;9.090;2023-03-11T09:41:21;14.40;;;13.80;;
20179;SDS011;10249;48.900;9.090;2023-03-11T09:43:54;14.47;;;13.67;;
20179;SDS011;10249;48.900;9.090;2023-03-11T09:46:30;16.10;;;15.20;;
20179;SDS011;10249;48.900;9.090;2023-03-11T09:49:03;16.30;;;15.30;;
20179;SDS011;10249;48.900;9.090;2023-03-11T09:51:35;15.90;;;14.90;;
20179;SDS011;10249;48.900;9.090;2023-03-11T09:54:04;15.50;;;14.70;;
20179;SDS011;10249;48.900;9.090;2023-03-11T09:56:32;14.40;;;13.90;;
20179;SDS011;10249;48.900;9.090;2023-03-11T09:59:00;14.30;;;13.70;;
20179;SDS011;10249;48.900;9.090;2023-03-11T10:01:29;15.10;;;14.13;;
20179;SDS011;10249;48.900;9.090;2023-03-11T10:04:00;15.30;;;14.60;;
20179;SDS011;10249;48.900;9.090;2023-03-11T10:06:28;16.00;;;15.20;;
20179;SDS011;10249;48.900;9.090;2023-03-11T10:08:58;15.07;;;14.47;;
20179;SDS011;10249;48.900;9.090;2023-03-11T10:11:34;17.53;;;16.53;;
20179;SDS011;10249;48.900;9.090;2023-03-11T10:14:11;16.63;;;15.80;;
20179;SDS011;10249;48.900;9.090;2023-03-11T10:16:43;16.87;;;15.97;;
20179;SDS011;10249;48.900;9.090;2023-03-11T10:19:14;16.00;;;15.20;;
20179;SDS011;10249;48.900;9.090;2023-03-11T10:21:48;16.03;;;15.27;;
20179;SDS011;10249;48.900;9.090;2023-03-11T10:24:25;15.57;;;14.73;;
20179;SDS011;10249;48.900;9.090;2023-03-11T10:26:58;15.20;;;14.50;;
20179;SDS011;10249;48.900;9.090;2023-03-11T10:29:28;16.10;;;15.10;;
20179;SDS011;10249;48.900;9.090;2023-03-11T10:31:56;15.47;;;14.87;;
20179;SDS011;10249;48.900;9.090;2023-03-11T10:34:27;15.10;;;14.40;;
20179;SDS011;10249;48.900;9.090;2023-03-11T10:36:58;14.80;;;14.10;;
20179;SDS011;10249;48.900;9.090;2023-03-11T10:39:29;15.33;;;14.43;;
20179;SDS011;10249;48.900;9.090;2023-03-11T10:41:56;15.10;;;14.40;;
20179;SDS011;10249;48.900;9.090;2023-03-11T10:44:27;15.17;;;14.37;;
20179;SDS011;10249;48.900;9.090;2023-03-11T10:46:55;16.00;;;15.10;;
20179;SDS011;10249;48.900;9.090;2023-03-11T10:49:22;15.80;;;14.80;;
20179;SDS011;10249;48.900;9.090;2023-03-11T10:51:50;15.50;;;14.70;;
20179;SDS011;10249;48.900;9.090;2023-03-11T10:54:21;15.77;;;14.73;;
20179;SDS011;10249;48.900;9.090;2023-03-11T10:56:53;15.20;;;14.50;;
20179;SDS011;10249;48.900;9.090;2023-03-11T10:59:22;16.53;;;15.53;;
20179;SDS011;10249;48.900;9.090;2023-03-11T11:01:53;16.13;;;15.33;;
20179;SDS011;10249;48.900;9.090;2023-03-11T11:04:24;16.30;;;15.23;;
20179;SDS011;10249;48.900;9.090;2023-03-11T11:06:52;16.60;;;15.90;;
20179;SDS011;10249;48.900;9.090;2023-03-11T11:09:20;16.67;;;15.87;;
20179;SDS011;10249;48.900;9.090;2023-03-11T11:12:00;16.40;;;15.50;;
20179;SDS011;10249;48.900;9.090;2023-03-11T11:14:41;15.97;;;15.03;;
20179;SDS011;10249;48.900;9.090;2023-03-11T11:17:13;15.47;;;14.67;;
20179;SDS011;10249;48.900;9.090;2023-03-11T11:19:42;15.90;;;15.00;;
20179;SDS011;10249;48.900;9.090;2023-03-11T11:22:10;15.83;;;15.13;;
20179;SDS011;10249;48.900;9.090;2023-03-11T11:24:42;16.00;;;15.30;;
20179;SDS011;10249;48.900;9.090;2023-03-11T11:27:15;16.50;;;15.60;;
20179;SDS011;10249;48.900;9.090;2023-03-11T11:29:42;16.13;;;15.20;;
20179;SDS011;10249;48.900;9.090;2023-03-11T11:32:22;15.97;;;15.17;;
20179;SDS011;10249;48.900;9.090;2023-03-11T11:34:53;16.60;;;15.57;;
20179;SDS011;10249;48.900;9.090;2023-03-11T11:37:21;15.30;;;14.60;;
20179;SDS011;10249;48.900;9.090;2023-03-11T11:39:52;16.10;;;15.30;;
20179;SDS011;10249;48.900;9.090;2023-03-11T11:42:22;15.63;;;14.93;;
20179;SDS011;10249;48.900;9.090;2023-03-11T11:44:51;15.90;;;15.10;;
20179;SDS011;10249;48.900;9.090;2023-03-11T11:47:19;16.07;;;15.27;;
20179;SDS011;10249;48.900;9.090;2023-03-11T11:49:49;16.53;;;15.67;;
20179;SDS011;10249;48.900;9.090;2023-03-11T11:52:18;15.60;;;14.80;;
20179;SDS011;10249;48.900;9.090;2023-03-11T11:54:47;16.10;;;15.30;;
20179;SDS011;10249;48.900;9.090;2023-03-11T11:57:16;15.50;;;14.80;;
20179;SDS011;10249;48.900;9.090;2023-03-11T11:59:45;16.43;;;15.63;;
20179;SDS011;10249;48.900;9.090;2023-03-11T12:02:18;16.30;;;15.50;;
20179;SDS011;10249;48.900;9.090;2023-03-11T12:04:50;15.93;;;15.23;;
20179;SDS011;10249;48.900;9.090;2023-03-11T12:10:08;17.20;;;15.40;;
20179;SDS011;10249;48.900;9.090;2023-03-11T12:12:37;16.80;;;15.87;;
20179;SDS011;10249;48.900;9.090;2023-03-11T12:15:09;16.23;;;15.33;;
20179;SDS011;10249;48.900;9.090;2023-03-11T12:17:40;15.83;;;15.03;;
20179;SDS011;10249;48.900;9.090;2023-03-11T12:20:09;15.97;;;15.17;;
20179;SDS011;10249;48.900;9.090;2023-03-11T12:25:27;16.23;;;15.27;;
20179;SDS011;10249;48.900;9.090;2023-03-11T12:27:58;15.70;;;14.80;;
20179;SDS011;10249;48.900;9.090;2023-03-11T12:30:30;16.47;;;15.67;;
20179;SDS011;10249;48.900;9.090;2023-03-11T12:32:59;16.30;;;15.30;;
20179;SDS011;10249;48.900;9.090;2023-03-11T12:35:27;17.23;;;16.03;;
20179;SDS011;10249;48.900;9.090;2023-03-11T12:38:00;16.50;;;15.70;;
20179;SDS011;10249;48.900;9.090;2023-03-11T12:40:41;15.40;;;14.70;;
20179;SDS011;10249;48.900;9.090;2023-03-11T12:43:22;15.70;;;15.00;;
20179;SDS011;10249;48.900;9.090;2023-03-11T12:45:51;15.47;;;14.77;;
20179;SDS011;10249;48.900;9.090;2023-03-11T12:48:32;16.33;;;15.43;;
20179;SDS011;10249;48.900;9.090;2023-03-11T12:50:59;15.60;;;14.90;;
20179;SDS011;10249;48.900;9.090;2023-03-11T12:53:42;15.63;;;14.93;;
20179;SDS011;10249;48.900;9.090;2023-03-11T12:56:12;16.40;;;15.60;;
20179;SDS011;10249;48.900;9.090;2023-03-11T12:58:49;16.13;;;15.33;;
20179;SDS011;10249;48.900;9.090;2023-03-11T13:01:25;15.17;;;14.47;;
20179;SDS011;10249;48.900;9.090;2023-03-11T13:03:59;16.40;;;15.50;;
20179;SDS011;10249;48.900;9.090;2023-03-11T13:06:35;15.37;;;14.67;;
20179;SDS011;10249;48.900;9.090;2023-03-11T13:09:10;16.10;;;15.20;;
20179;SDS011;10249;48.900;9.090;2023-03-11T13:11:40;15.60;;;14.90;;
20179;SDS011;10249;48.900;9.090;2023-03-11T13:16:51;15.40;;;14.70;;
20179;SDS011;10249;48.900;9.090;2023-03-11T13:19:35;15.30;;;14.60;;
20179;SDS011;10249;48.900;9.090;2023-03-11T13:22:03;15.90;;;15.10;;
20179;SDS011;10249;48.900;9.090;2023-03-11T13:24:40;16.30;;;15.40;;
20179;SDS011;10249;48.900;9.090;2023-03-11T13:27:17;16.30;;;15.30;;
20179;SDS011;10249;48.900;9.090;2023-03-11T13:29:51;16.60;;;15.60;;
20179;SDS011;10249;48.900;9.090;2023-03-11T13:32:33;15.20;;;14.50;;
20179;SDS011;10249;48.900;9.090;2023-03-11T13:35:19;15.30;;;14.60;;
20179;SDS011;10249;48.900;9.090;2023-03-11T13:37:50;15.27;;;14.57;;
20179;SDS011;10249;48.900;9.090;2023-03-11T13:40:21;16.07;;;15.07;;
20179;SDS011;10249;48.900;9.090;2023-03-11T13:42:54;15.90;;;15.00;;
20179;SDS011;10249;48.900;9.090;2023-03-11T13:45:25;15.90;;;15.10;;
20179;SDS011;10249;48.900;9.090;2023-03-11T13:47:55;16.30;;;15.50;;
20179;SDS011;10249;48.900;9.090;2023-03-11T13:50:23;16.37;;;15.40;;
20179;SDS011;10249;48.900;9.090;2023-03-11T13:52:52;15.67;;;14.97;;
20179;SDS011;10249;48.900;9.090;2023-03-11T13:55:20;16.57;;;15.57;;
20179;SDS011;10249;48.900;9.090;2023-03-11T13:57:49;16.73;;;15.80;;
20179;SDS011;10249;48.900;9.090;2023-03-11T14:00:17;15.70;;;14.80;;
20179;SDS011;10249;48.900;9.090;2023-03-11T14:02:48;15.73;;;15.00;;
20179;SDS011;10249;48.900;9.090;2023-03-11T14:05:18;16.83;;;15.83;;
20179;SDS011;10249;48.900;9.090;2023-03-11T14:07:46;15.50;;;14.80;;
20179;SDS011;10249;48.900;9.090;2023-03-11T14:10:18;15.87;;;15.07;;
20179;SDS011;10249;48.900;9.090;2023-03-11T14:12:46;16.03;;;15.23;;
20179;SDS011;10249;48.900;9.090;2023-03-11T14:15:14;15.57;;;14.87;;
20179;SDS011;10249;48.900;9.090;2023-03-11T14:17:41;16.90;;;15.80;;
20179;SDS011;10249;48.900;9.090;2023-03-11T14:20:11;15.67;;;14.97;;
20179;SDS011;10249;48.900;9.090;2023-03-11T14:22:43;16.53;;;15.57;;
20179;SDS011;10249;48.900;9.090;2023-03-11T14:25:13;15.53;;;14.83;;
20179;SDS011;10249;48.900;9.090;2023-03-11T14:27:44;15.60;;;14.90;;
20179;SDS011;10249;48.900;9.090;2023-03-11T14:30:17;15.87;;;15.03;;
20179;SDS011;10249;48.900;9.090;2023-03-11T14:32:53;15.67;;;14.77;;
20179;SDS011;10249;48.900;9.090;2023-03-11T14:35:21;15.40;;;14.70;;
20179;SDS011;10249;48.900;9.090;2023-03-11T14:37:49;16.10;;;15.20;;
20179;SDS011;10249;48.900;9.090;2023-03-11T14:40:22;16.00;;;15.20;;